Time;durP1;ratioP1;P1;durP2;ratioP2;P2;SDS_P1;SDS_P2;PMS_P1;PMS_P2;Temp;Humidity;BMP_temperature;BMP_pressure;BME280_temperature;BME280_humidity;BME280_pressure;Samples;Min_cycle;Max_cycle;Signal;HPM_P1;HPM_P2
2022/11/21 00:00:52;;;;;;;1.80;1.48;;;;;;;18.06;37.32;100846.81;4750821;30;20509;-87
2022/11/21 00:03:17;;;;;;;1.63;1.20;;;;;;;18.01;37.46;100843.97;4736275;30;20381;-87
2022/11/21 00:05:44;;;;;;;1.60;1.20;;;;;;;18.02;37.38;100851.00;4736083;30;20114;-87
2022/11/21 00:08:11;;;;;;;1.48;1.38;;;;;;;18.05;37.38;100861.38;4735938;30;20032;-87
2022/11/21 00:10:37;;;;;;;1.40;1.20;;;;;;;18.05;37.32;100865.97;4735779;30;20195;-87
2022/11/21 00:13:03;;;;;;;1.77;1.30;;;;;;;18.06;37.39;100868.44;4750569;30;20028;-87
2022/11/21 00:15:28;;;;;;;1.40;1.27;;;;;;;18.01;37.38;100862.91;4736016;30;20032;-87
2022/11/21 00:17:54;;;;;;;1.38;1.15;;;;;;;18.04;37.29;100870.56;4750839;30;20066;-87
2022/11/21 00:20:21;;;;;;;1.27;1.17;;;;;;;18.01;37.31;100860.19;4735844;30;20040;-87
2022/11/21 00:22:47;;;;;;;1.80;1.35;;;;;;;18.04;37.38;100875.97;4735947;30;20036;-87
2022/11/21 00:25:13;;;;;;;1.58;1.20;;;;;;;18.00;37.31;100875.56;4735906;30;20032;-87
2022/11/21 00:27:38;;;;;;;1.30;1.20;;;;;;;18.02;37.44;100878.03;4751831;30;20035;-87
2022/11/21 00:30:08;;;;;;;1.33;1.23;;;;;;;18.04;37.42;100875.13;4750468;30;20465;-88
2022/11/21 00:32:37;;;;;;;1.15;1.05;;;;;;;18.01;37.41;100874.53;4735929;30;20035;-87
2022/11/21 00:35:03;;;;;;;1.40;1.30;;;;;;;18.01;37.35;100865.59;4735400;30;20048;-87
2022/11/21 00:37:28;;;;;;;1.30;1.20;;;;;;;18.05;37.21;100865.97;4735807;30;20028;-87
2022/11/21 00:39:54;;;;;;;1.38;1.27;;;;;;;17.99;37.30;100856.88;4750251;30;20162;-87
2022/11/21 00:42:19;;;;;;;1.40;1.30;;;;;;;17.99;37.48;100862.28;4749745;30;20044;-87
2022/11/21 00:44:45;;;;;;;1.75;1.30;;;;;;;18.01;37.15;100862.91;4750066;30;20035;-87
2022/11/21 00:47:11;;;;;;;1.33;1.23;;;;;;;17.99;37.28;100856.88;4750052;30;20036;-87
2022/11/21 00:49:36;;;;;;;1.40;1.20;;;;;;;18.02;37.30;100859.13;4750241;30;20036;-87
2022/11/21 00:52:02;;;;;;;1.90;1.23;;;;;;;18.03;37.03;100863.50;4751395;30;20040;-87
2022/11/21 00:54:28;;;;;;;1.27;1.17;;;;;;;18.00;37.45;100862.03;4735331;30;20032;-87
2022/11/21 00:56:53;;;;;;;1.95;1.23;;;;;;;18.03;37.22;100863.50;4735416;30;20404;-87
2022/11/21 00:59:19;;;;;;;1.42;1.33;;;;;;;18.00;37.21;100858.53;4735392;30;20028;-87
2022/11/21 01:01:45;;;;;;;1.17;1.05;;;;;;;18.01;37.52;100857.47;4735355;30;20519;-87
2022/11/21 01:04:13;;;;;;;1.52;1.23;;;;;;;18.01;37.17;100854.78;4735249;30;20113;-87
2022/11/21 01:06:39;;;;;;;1.42;1.30;;;;;;;17.98;37.36;100850.63;4735330;30;20036;-87
2022/11/21 01:09:05;;;;;;;1.40;1.30;;;;;;;18.02;37.40;100856.41;4735390;30;20032;-87
2022/11/21 01:11:30;;;;;;;1.13;1.02;;;;;;;17.98;37.13;100855.22;4749881;30;20032;-87
2022/11/21 01:13:56;;;;;;;1.40;1.30;;;;;;;17.99;37.41;100862.28;4735324;30;20032;-87
2022/11/21 01:16:23;;;;;;;1.63;1.52;;;;;;;17.97;37.37;100848.16;4749868;30;20100;-87
2022/11/21 01:18:49;;;;;;;1.42;1.30;;;;;;;17.99;37.35;100856.88;4750358;30;20128;-87
2022/11/21 01:21:19;;;;;;;1.30;1.20;;;;;;;18.00;37.35;100859.34;4735217;30;20037;-87
2022/11/21 01:23:45;;;;;;;1.80;1.50;;;;;;;18.00;37.24;100858.53;4749907;30;20040;-87
2022/11/21 01:26:21;;;;;;;1.52;1.40;;;;;;;18.00;37.33;100858.53;4720552;30;20033;-87
2022/11/21 01:28:47;;;;;;;1.10;1.00;;;;;;;18.00;37.27;100858.53;4735689;30;20131;-87
2022/11/21 01:31:14;;;;;;;1.42;1.30;;;;;;;18.00;37.27;100858.53;4735123;30;20037;-87
2022/11/21 01:33:40;;;;;;;2.17;1.38;;;;;;;18.00;37.35;100858.53;4749533;30;20055;-87
2022/11/21 01:36:16;;;;;;;1.55;1.45;;;;;;;17.96;37.36;100852.75;4720354;30;20024;-87
2022/11/21 01:38:43;;;;;;;1.48;1.38;;;;;;;18.00;37.30;100863.94;4749806;30;20123;-87
2022/11/21 01:41:09;;;;;;;1.38;1.25;;;;;;;17.98;37.39;100855.22;4735063;30;20036;-87
2022/11/21 01:43:35;;;;;;;1.90;1.45;;;;;;;17.99;37.16;100867.72;4735228;30;20033;-87
2022/11/21 01:46:08;;;;;;;1.58;1.30;;;;;;;18.00;37.22;100863.94;4735159;30;20024;-87
2022/11/21 01:48:59;;;;;;;1.77;1.40;;;;;;;17.99;37.30;100867.72;4749767;30;20024;-87
2022/11/21 01:51:30;;;;;;;1.35;1.20;;;;;;;18.00;37.33;100863.94;4750025;30;20115;-87
2022/11/21 01:54:22;;;;;;;1.83;1.30;;;;;;;17.98;37.35;100858.75;4734743;30;20111;-87
2022/11/21 01:57:11;;;;;;;1.40;1.30;;;;;;;17.99;37.39;100863.13;4737419;30;20517;-87
2022/11/21 01:59:43;;;;;;;1.10;1.00;;;;;;;18.00;37.36;100863.94;4752804;30;20086;-87
2022/11/21 02:02:12;;;;;;;1.88;1.50;;;;;;;17.97;37.39;100858.97;4752663;30;20037;-87
2022/11/21 02:04:38;;;;;;;1.50;1.30;;;;;;;17.98;37.18;100855.22;4738760;30;20036;-88
2022/11/21 02:07:05;;;;;;;2.35;1.40;;;;;;;17.99;37.30;100862.28;4738259;30;20397;-87
2022/11/21 02:09:31;;;;;;;1.20;1.10;;;;;;;18.00;37.16;100866.63;4738214;30;20051;-87
2022/11/21 02:11:59;;;;;;;1.50;1.40;;;;;;;17.99;37.26;100862.28;4738144;30;20032;-87
2022/11/21 02:14:24;;;;;;;1.33;1.17;;;;;;;17.99;37.06;100855.00;4723555;30;20492;-87
2022/11/21 02:16:50;;;;;;;1.38;1.27;;;;;;;17.97;37.22;100849.00;4737902;30;20024;-87
2022/11/21 02:19:55;;;;;;;1.63;1.30;;;;;;;18.00;37.35;100853.13;4737862;30;20066;-87
2022/11/21 02:22:35;;;;;;;1.42;1.30;;;;;;;17.96;37.16;100855.44;4731927;30;20071;-87
2022/11/21 02:25:04;;;;;;;1.55;1.33;;;;;;;17.99;37.24;100856.88;4752405;30;20035;-87
2022/11/21 02:27:32;;;;;;;1.85;1.40;;;;;;;17.97;37.08;100850.84;4752316;30;20035;-87
2022/11/21 02:29:58;;;;;;;1.40;1.20;;;;;;;17.98;37.17;100855.22;4737584;30;20385;-87
2022/11/21 02:32:37;;;;;;;1.40;1.30;;;;;;;17.96;37.14;100854.63;4737560;30;20115;-87
2022/11/21 02:35:03;;;;;;;1.30;1.20;;;;;;;17.99;37.15;100867.72;4768757;30;20083;-87
2022/11/21 02:37:28;;;;;;;1.65;1.20;;;;;;;17.98;37.24;100866.03;4740669;30;20035;-87
2022/11/21 02:39:55;;;;;;;1.60;1.35;;;;;;;18.00;37.28;100872.03;4755180;30;20032;-87
2022/11/21 02:42:25;;;;;;;1.48;1.38;;;;;;;17.99;37.48;100873.13;4740392;30;20115;-86
2022/11/21 02:45:15;;;;;;;2.00;1.50;;;;;;;17.97;37.13;100867.09;4740825;30;20036;-87
2022/11/21 02:47:41;;;;;;;1.27;1.17;;;;;;;17.98;37.12;100866.03;4757198;30;20485;-87
2022/11/21 02:50:19;;;;;;;1.48;1.30;;;;;;;17.98;37.21;100871.44;4740160;30;20122;-86
2022/11/21 02:52:45;;;;;;;1.20;1.10;;;;;;;17.98;37.21;100866.03;4754825;30;20151;-87
2022/11/21 02:55:12;;;;;;;1.85;1.67;;;;;;;17.95;37.37;100861.91;4754820;30;20476;-87
2022/11/21 02:57:38;;;;;;;1.30;1.15;;;;;;;17.98;37.30;100852.53;4740507;30;20476;-87
2022/11/21 03:00:08;;;;;;;1.45;1.35;;;;;;;17.99;37.26;100867.72;4740043;30;20035;-87
2022/11/21 03:02:34;;;;;;;1.35;1.25;;;;;;;17.98;37.24;100855.22;4740187;30;20036;-87
2022/11/21 03:05:00;;;;;;;1.55;1.45;;;;;;;17.98;37.16;100860.63;4740030;30;20488;-87
2022/11/21 03:07:25;;;;;;;1.75;1.40;;;;;;;17.99;37.14;100854.19;4740151;30;20055;-87
2022/11/21 03:09:51;;;;;;;1.40;1.30;;;;;;;17.97;37.23;100848.16;4754127;30;20452;-87
2022/11/21 03:12:17;;;;;;;1.33;1.23;;;;;;;17.98;36.93;100860.63;4739754;30;20036;-87
2022/11/21 03:14:42;;;;;;;2.03;1.40;;;;;;;17.97;37.18;100867.94;4754759;30;20103;-87
2022/11/21 03:17:10;;;;;;;1.40;1.30;;;;;;;17.98;37.01;100871.44;4739819;30;20418;-87
2022/11/21 03:19:36;;;;;;;1.42;1.33;;;;;;;17.98;37.20;100874.97;4740562;30;20028;-87
2022/11/21 03:22:02;;;;;;;1.50;1.30;;;;;;;17.97;37.06;100872.50;4739747;30;20131;-87
2022/11/21 03:24:27;;;;;;;1.50;1.40;;;;;;;17.96;37.17;100874.38;4739407;30;20032;-87
2022/11/21 03:26:53;;;;;;;1.50;1.40;;;;;;;17.96;37.24;100862.75;4739745;30;20038;-87
2022/11/21 03:29:18;;;;;;;1.20;1.10;;;;;;;17.97;37.36;100856.25;4739597;30;20032;-87
2022/11/21 03:31:44;;;;;;;1.45;1.25;;;;;;;17.99;37.35;100870.41;4754298;30;20036;-87
2022/11/21 03:34:10;;;;;;;1.52;1.35;;;;;;;17.97;37.13;100864.38;4751073;30;20516;-87
2022/11/21 03:36:35;;;;;;;1.98;1.30;;;;;;;17.90;37.27;100853.66;4751232;30;20051;-88
2022/11/21 03:39:01;;;;;;;1.52;1.35;;;;;;;17.96;37.22;100858.16;4736625;30;20466;-87
2022/11/21 03:41:29;;;;;;;1.70;1.60;;;;;;;17.95;37.09;100858.38;4736293;30;20564;-87
2022/11/21 03:43:59;;;;;;;1.60;1.50;;;;;;;17.96;37.16;100863.56;4737025;30;20093;-87
2022/11/21 03:46:26;;;;;;;1.27;1.17;;;;;;;17.95;37.16;100866.47;4750786;30;20028;-87
2022/11/21 03:48:51;;;;;;;1.67;1.58;;;;;;;17.95;37.24;100866.47;4750826;30;20485;-87
2022/11/21 03:51:17;;;;;;;1.92;1.33;;;;;;;17.93;37.32;100872.13;4750999;30;20085;-87
2022/11/21 03:53:43;;;;;;;1.48;1.38;;;;;;;17.96;37.30;100873.56;4750953;30;20051;-87
2022/11/21 03:56:09;;;;;;;1.50;1.40;;;;;;;17.96;37.39;100874.38;4750891;30;20036;-87
2022/11/21 03:58:37;;;;;;;1.52;1.40;;;;;;;17.96;37.30;100874.38;4736084;30;20028;-87
2022/11/21 04:01:05;;;;;;;1.40;1.30;;;;;;;17.95;37.10;100871.88;4736170;30;20039;-87
2022/11/21 04:03:31;;;;;;;1.38;1.27;;;;;;;17.94;37.22;100864.84;4736404;30;20025;-87
2022/11/21 04:05:57;;;;;;;1.45;1.30;;;;;;;17.95;37.15;100866.47;4736214;30;20044;-87
2022/11/21 04:08:22;;;;;;;1.58;1.17;;;;;;;17.96;37.18;100868.97;4751693;30;20477;-87
2022/11/21 04:10:49;;;;;;;1.45;1.35;;;;;;;17.96;37.17;100868.16;4735983;30;20115;-87
2022/11/21 04:13:17;;;;;;;1.40;1.30;;;;;;;17.94;37.21;100864.84;4735929;30;20029;-87
2022/11/21 04:15:43;;;;;;;1.85;1.50;;;;;;;17.93;37.29;100869.41;4721314;30;20051;-87
2022/11/21 04:18:08;;;;;;;1.42;1.25;;;;;;;17.95;37.10;100867.31;4750491;30;20099;-87
2022/11/21 04:20:34;;;;;;;2.03;1.48;;;;;;;17.93;37.22;100864.00;4735411;30;20491;-87
2022/11/21 04:23:02;;;;;;;1.83;1.52;;;;;;;17.94;37.14;100862.97;4735846;30;20087;-87
2022/11/21 04:25:28;;;;;;;2.15;1.50;;;;;;;17.93;37.01;100857.78;4736348;30;20074;-87
2022/11/21 04:28:00;;;;;;;1.52;1.20;;;;;;;17.95;37.09;100856.47;4735789;30;20407;-88
2022/11/21 04:30:27;;;;;;;1.30;1.20;;;;;;;17.90;37.19;100852.81;4721226;30;20094;-87
2022/11/21 04:32:55;;;;;;;1.75;1.30;;;;;;;17.92;37.23;100856.13;4735585;30;20089;-87
2022/11/21 04:35:25;;;;;;;1.65;1.40;;;;;;;17.95;37.06;100858.38;4721088;30;20420;-87
2022/11/21 04:37:51;;;;;;;2.55;1.35;;;;;;;17.96;37.28;100851.94;4735647;30;20394;-87
2022/11/21 04:40:17;;;;;;;1.92;1.40;;;;;;;17.94;37.31;100849.44;4735358;30;20034;-87
2022/11/21 04:42:43;;;;;;;1.50;1.40;;;;;;;17.94;37.08;100848.63;4735459;30;20040;-87
2022/11/21 04:45:09;;;;;;;1.50;1.40;;;;;;;17.93;37.11;100841.56;4735401;30;20442;-87
2022/11/21 04:47:38;;;;;;;1.30;1.20;;;;;;;17.95;37.08;100855.66;4735376;30;20028;-87
2022/11/21 04:50:08;;;;;;;1.52;1.42;;;;;;;17.93;37.13;100850.47;4735470;30;20032;-87
2022/11/21 04:52:36;;;;;;;1.42;1.33;;;;;;;17.93;37.16;100847.78;4735835;30;20043;-87
2022/11/21 04:55:02;;;;;;;1.88;1.40;;;;;;;17.91;37.02;100846.38;4735476;30;20028;-87
2022/11/21 04:57:30;;;;;;;1.40;1.30;;;;;;;17.92;36.88;100845.28;4735338;30;20484;-87
2022/11/21 04:59:56;;;;;;;2.00;1.50;;;;;;;17.93;37.07;100844.25;4735008;30;20551;-87
2022/11/21 05:02:22;;;;;;;1.40;1.30;;;;;;;17.94;37.04;100851.34;4735197;30;20228;-87
2022/11/21 05:04:47;;;;;;;1.45;1.30;;;;;;;17.94;37.08;100845.91;4735128;30;20036;-87
2022/11/21 05:07:13;;;;;;;2.30;1.50;;;;;;;17.91;37.20;100843.66;4735242;30;20087;-87
2022/11/21 05:09:39;;;;;;;1.55;1.35;;;;;;;17.93;37.19;100841.56;4749740;30;20102;-87
2022/11/21 05:14:53;;;;;;;1.20;1.10;;;;;;;17.91;37.03;100839.06;4737515;30;20043;-87
2022/11/21 05:17:18;;;;;;;1.35;1.25;;;;;;;17.93;36.96;100833.44;4735081;30;20028;-87
2022/11/21 05:19:44;;;;;;;1.42;1.27;;;;;;;17.94;37.05;100845.91;4735026;30;20119;-87
2022/11/21 05:22:16;;;;;;;1.40;1.30;;;;;;;17.88;37.30;100833.28;4734752;30;20036;-87
2022/11/21 05:24:41;;;;;;;1.55;1.40;;;;;;;17.90;36.95;100840.13;4734949;30;20029;-88
2022/11/21 05:27:10;;;;;;;2.00;1.65;;;;;;;17.92;37.14;100842.59;4734830;30;20448;-87
2022/11/21 05:29:36;;;;;;;1.70;1.35;;;;;;;17.89;37.05;100840.38;4734919;30;20378;-88
2022/11/21 05:32:01;;;;;;;1.38;1.27;;;;;;;17.92;37.16;100832.63;4749603;30;20089;-87
2022/11/21 05:34:27;;;;;;;1.73;1.42;;;;;;;17.92;37.00;100829.06;4738153;30;20123;-87
2022/11/21 05:36:56;;;;;;;1.40;1.30;;;;;;;17.92;37.02;100823.66;4738541;30;20082;-87
2022/11/21 05:39:22;;;;;;;1.73;1.40;;;;;;;17.89;36.99;100824.13;4739241;30;20032;-87
2022/11/21 05:41:47;;;;;;;2.13;1.50;;;;;;;17.88;37.15;100817.88;4738148;30;20114;-87
2022/11/21 05:44:13;;;;;;;1.48;1.30;;;;;;;17.92;37.01;100823.66;4738155;30;20034;-87
2022/11/21 05:46:38;;;;;;;2.25;1.55;;;;;;;17.90;36.96;100820.38;4738263;30;20062;-87
2022/11/21 05:49:04;;;;;;;1.85;1.45;;;;;;;17.93;37.10;100819.91;4753077;30;20031;-87
2022/11/21 05:51:30;;;;;;;1.73;1.35;;;;;;;17.90;37.13;100817.66;4738402;30;20127;-87
2022/11/21 05:53:55;;;;;;;1.55;1.45;;;;;;;17.90;37.03;100815.81;4752976;30;20036;-87
2022/11/21 05:56:21;;;;;;;1.63;1.38;;;;;;;17.86;36.94;100817.28;4738057;30;20403;-87
2022/11/21 05:58:47;;;;;;;1.55;1.23;;;;;;;17.91;36.95;100832.84;4738204;30;20038;-87
2022/11/21 06:03:25;;;;;;;1.70;1.38;;;;;;;17.88;37.05;100825.19;4738166;30;20040;-87
2022/11/21 06:04:01;;;;;;;1.50;1.30;;;;;;;17.89;37.12;100824.13;4740450;30;20043;-87
2022/11/21 06:06:27;;;;;;;1.30;1.20;;;;;;;17.92;37.03;100834.47;4722889;30;20035;-87
2022/11/21 06:08:52;;;;;;;1.45;1.15;;;;;;;17.89;37.03;100838.47;4737724;30;20138;-87
2022/11/21 06:11:18;;;;;;;2.10;1.50;;;;;;;17.88;37.10;100823.28;4737396;30;20097;-87
2022/11/21 06:13:44;;;;;;;1.40;1.30;;;;;;;17.89;36.99;100827.66;4737291;30;20059;-88
2022/11/21 06:16:11;;;;;;;1.70;1.35;;;;;;;17.91;37.02;100822.03;4736544;30;20066;-87
2022/11/21 06:18:38;;;;;;;1.55;1.38;;;;;;;17.90;37.10;100826.63;4722689;30;20032;-87
2022/11/21 06:21:14;;;;;;;1.67;1.40;;;;;;;17.89;37.06;100830.38;4722771;30;20028;-87
2022/11/21 06:23:40;;;;;;;1.65;1.40;;;;;;;17.91;36.88;100838.25;4737612;30;20065;-87
2022/11/21 06:26:16;;;;;;;1.60;1.42;;;;;;;17.91;36.87;100832.84;4737349;30;20511;-87
2022/11/21 06:28:42;;;;;;;1.45;1.35;;;;;;;17.90;37.10;100836.59;4722994;30;20039;-87
2022/11/21 06:31:10;;;;;;;1.52;1.42;;;;;;;17.92;36.93;100845.28;4737555;30;20034;-87
2022/11/21 06:33:38;;;;;;;1.33;1.23;;;;;;;17.92;36.98;100845.28;4737868;30;20059;-87
2022/11/21 06:36:12;;;;;;;2.03;1.60;;;;;;;17.89;36.96;100845.78;4737742;30;20044;-87
2022/11/21 06:38:38;;;;;;;1.30;1.20;;;;;;;17.90;36.97;100858.22;4737892;30;20064;-87
2022/11/21 06:41:10;;;;;;;1.42;1.23;;;;;;;17.88;36.99;100854.91;4722831;30;20040;-87
2022/11/21 06:43:35;;;;;;;1.50;1.40;;;;;;;17.89;37.05;100851.19;4738393;30;20503;-87
2022/11/21 06:46:02;;;;;;;1.50;1.25;;;;;;;17.91;36.98;100854.47;4737572;30;20067;-87
2022/11/21 06:48:29;;;;;;;1.65;1.33;;;;;;;17.89;36.88;100843.88;4737537;30;20035;-87
2022/11/21 06:50:55;;;;;;;1.33;1.23;;;;;;;17.89;36.89;100830.38;4751993;30;20032;-87
2022/11/21 06:53:21;;;;;;;1.55;1.45;;;;;;;17.90;36.92;100825.78;4751928;30;20043;-87
2022/11/21 06:55:46;;;;;;;1.40;1.30;;;;;;;17.91;36.88;100830.97;4752159;30;20032;-87
2022/11/21 06:58:12;;;;;;;2.45;1.65;;;;;;;17.91;36.66;100820.16;4753023;30;20070;-87
2022/11/21 07:00:37;;;;;;;1.40;1.30;;;;;;;17.91;37.24;100817.44;4751855;30;20029;-87
2022/11/21 07:03:03;;;;;;;1.90;1.60;;;;;;;17.88;36.88;100800.84;4737464;30;20024;-87
2022/11/21 07:05:29;;;;;;;1.40;1.30;;;;;;;17.90;36.77;100815.81;4751897;30;20107;-87
2022/11/21 07:08:01;;;;;;;1.58;1.48;;;;;;;17.89;36.95;100824.13;4737269;30;20124;-87
2022/11/21 07:10:27;;;;;;;1.55;1.42;;;;;;;17.90;36.77;100828.47;4736921;30;20083;-87
2022/11/21 07:16:13;;;;;;;1.60;1.40;;;;;;;17.89;36.99;100819.56;4740264;30;20039;-87
2022/11/21 07:18:38;;;;;;;1.30;1.10;;;;;;;17.90;36.84;100814.97;4723674;30;20044;-87
2022/11/21 07:21:04;;;;;;;1.40;1.30;;;;;;;17.88;36.82;100833.28;4751444;30;20036;-87
2022/11/21 07:23:30;;;;;;;1.67;1.58;;;;;;;17.89;36.81;100826.84;4722293;30;20032;-87
2022/11/21 07:26:22;;;;;;;1.58;1.38;;;;;;;17.90;36.92;100831.19;4736839;30;20036;-87
2022/11/21 07:28:48;;;;;;;1.40;1.30;;;;;;;17.88;36.75;100828.69;4735006;30;20040;-87
2022/11/21 07:31:13;;;;;;;1.50;1.40;;;;;;;17.90;36.89;100825.78;4736814;30;20524;-87
2022/11/21 07:33:39;;;;;;;2.47;1.48;;;;;;;17.89;36.78;100834.97;4736706;30;20056;-87
2022/11/21 07:36:11;;;;;;;1.95;1.50;;;;;;;17.89;36.74;100830.38;4736696;30;20580;-87
2022/11/21 07:38:37;;;;;;;1.48;1.35;;;;;;;17.88;36.83;100833.28;4736752;30;20040;-87
2022/11/21 07:41:02;;;;;;;1.80;1.50;;;;;;;17.90;36.72;100836.59;4736499;30;20133;-87
2022/11/21 07:43:28;;;;;;;2.03;1.40;;;;;;;17.85;36.79;100823.72;4736506;30;20528;-87
2022/11/21 07:45:54;;;;;;;1.50;1.40;;;;;;;17.89;36.76;100824.13;4751409;30;20111;-87
2022/11/21 07:48:20;;;;;;;2.42;1.60;;;;;;;17.88;36.71;100811.66;4736763;30;20036;-87
2022/11/21 07:50:46;;;;;;;1.80;1.35;;;;;;;17.88;36.84;100811.66;4736403;30;20028;-87
2022/11/21 07:53:13;;;;;;;1.65;1.30;;;;;;;17.86;36.70;100808.34;4751103;30;20024;-87
2022/11/21 07:55:39;;;;;;;1.58;1.27;;;;;;;17.87;36.77;100810.00;4736014;30;20028;-87
2022/11/21 07:58:09;;;;;;;1.65;1.50;;;;;;;17.89;36.57;100818.72;4721797;30;20053;-87
2022/11/21 08:00:35;;;;;;;1.55;1.20;;;;;;;17.89;36.67;100818.72;4736323;30;20063;-87
2022/11/21 08:03:03;;;;;;;1.42;1.33;;;;;;;17.90;36.74;100812.25;4736333;30;20028;-87
2022/11/21 08:05:28;;;;;;;1.60;1.27;;;;;;;17.81;36.84;100809.81;4736023;30;20486;-87
2022/11/21 08:07:54;;;;;;;1.38;1.27;;;;;;;17.89;36.63;100810.63;4736012;30;20032;-87
2022/11/21 08:10:20;;;;;;;1.30;1.20;;;;;;;17.85;36.71;100804.81;4750604;30;20424;-87
2022/11/21 08:12:46;;;;;;;2.67;1.50;;;;;;;17.86;36.77;100820.00;4736036;30;20036;-87
2022/11/21 08:15:11;;;;;;;1.23;1.13;;;;;;;17.88;36.59;100823.28;4750669;30;20566;-87
2022/11/21 08:17:37;;;;;;;1.60;1.20;;;;;;;17.89;36.51;100821.44;4735850;30;20056;-87
2022/11/21 08:20:08;;;;;;;1.50;1.40;;;;;;;17.89;36.58;100802.50;4721409;30;20489;-87
2022/11/21 08:22:40;;;;;;;1.70;1.35;;;;;;;17.87;36.48;100810.00;4736081;30;20063;-87
2022/11/21 08:25:07;;;;;;;1.55;1.40;;;;;;;17.88;36.50;100808.97;4735817;30;20028;-87
2022/11/21 08:27:32;;;;;;;1.48;1.25;;;;;;;17.88;36.52;100831.41;4735831;30;20121;-87
2022/11/21 08:29:58;;;;;;;1.40;1.30;;;;;;;17.88;36.54;100827.88;4735769;30;20421;-88
2022/11/21 08:32:24;;;;;;;1.40;1.30;;;;;;;17.89;36.40;100843.06;4735957;30;20428;-88
2022/11/21 08:34:50;;;;;;;1.55;1.38;;;;;;;17.84;36.43;100814.78;4750093;30;20139;-87
2022/11/21 08:37:15;;;;;;;1.58;1.48;;;;;;;17.86;36.50;100809.19;4735827;30;20488;-87
2022/11/21 08:39:41;;;;;;;1.70;1.42;;;;;;;17.87;36.64;100826.22;4750550;30;20059;-87
2022/11/21 08:42:06;;;;;;;1.58;1.30;;;;;;;17.86;36.52;100820.00;4735531;30;20043;-87
2022/11/21 08:44:32;;;;;;;1.20;1.10;;;;;;;17.87;36.38;100820.81;4735785;30;20547;-87
2022/11/21 08:47:00;;;;;;;1.30;1.20;;;;;;;17.86;36.41;100827.25;4735547;30;20036;-87
2022/11/21 08:49:26;;;;;;;1.20;1.10;;;;;;;17.86;36.54;100811.03;4735667;30;20404;-87
2022/11/21 08:51:52;;;;;;;1.50;1.40;;;;;;;17.86;36.41;100829.97;4735591;30;20060;-87
2022/11/21 08:54:18;;;;;;;1.50;1.40;;;;;;;17.88;36.58;100817.06;4735622;30;20032;-87
2022/11/21 08:56:44;;;;;;;1.70;1.50;;;;;;;17.84;36.50;100803.97;4735273;30;20085;-87
2022/11/21 08:59:09;;;;;;;1.58;1.42;;;;;;;17.86;36.45;100805.63;4735277;30;20060;-86
2022/11/21 09:01:36;;;;;;;1.80;1.60;;;;;;;17.85;36.58;100791.28;4735142;30;20091;-87
2022/11/21 09:04:02;;;;;;;1.40;1.30;;;;;;;17.82;36.41;100802.56;4749981;30;20024;-87
2022/11/21 09:06:27;;;;;;;1.40;1.30;;;;;;;17.84;36.31;100817.47;4749819;30;20032;-87
2022/11/21 09:08:53;;;;;;;1.33;1.23;;;;;;;17.86;36.46;100811.03;4735432;30;20191;-87
2022/11/21 09:11:19;;;;;;;1.65;1.17;;;;;;;17.87;36.50;100804.59;4735419;30;20089;-87
2022/11/21 09:18:01;;;;;;;1.63;1.30;;;;;;;17.86;36.25;100792.09;4750222;30;20142;-87
2022/11/21 09:19:14;;;;;;;1.40;1.30;;;;;;;17.83;36.43;100788.81;4737799;30;20482;-87
2022/11/21 09:21:39;;;;;;;1.55;1.45;;;;;;;17.84;36.50;100793.16;4749850;30;20098;-87
2022/11/21 09:24:08;;;;;;;1.92;1.40;;;;;;;17.87;36.31;100788.38;4735117;30;20115;-87
2022/11/21 09:26:34;;;;;;;1.40;1.30;;;;;;;17.86;36.38;100782.13;4735050;30;20039;-87
2022/11/21 09:28:59;;;;;;;1.88;1.60;;;;;;;17.86;36.52;100770.47;4735025;30;20036;-87
2022/11/21 09:31:25;;;;;;;1.60;1.50;;;;;;;17.85;36.41;100764.25;4749623;30;20028;-87
2022/11/21 09:33:50;;;;;;;1.48;1.20;;;;;;;17.82;36.41;100757.41;4734985;30;20052;-87
2022/11/21 09:36:16;;;;;;;1.80;1.48;;;;;;;17.86;36.34;100759.66;4750753;30;20029;-87
2022/11/21 09:38:42;;;;;;;1.90;1.33;;;;;;;17.85;36.33;100772.38;4749898;30;20115;-87
2022/11/21 09:41:52;;;;;;;1.42;1.33;;;;;;;17.86;36.52;100759.66;4734983;30;20397;-87
2022/11/21 09:44:44;;;;;;;1.55;1.40;;;;;;;17.86;36.44;100770.47;4746097;30;20047;-87
2022/11/21 09:47:25;;;;;;;1.65;1.55;;;;;;;17.83;36.39;100761.78;4750857;30;20563;-87
2022/11/21 09:50:07;;;;;;;1.50;1.30;;;;;;;17.79;36.34;100754.34;4749806;30;20130;-87
2022/11/21 09:52:37;;;;;;;1.50;1.40;;;;;;;17.83;36.43;100767.19;4736011;30;20038;-88
2022/11/21 09:55:13;;;;;;;2.03;1.60;;;;;;;17.82;36.35;100757.41;4749695;30;20386;-87
2022/11/21 09:57:38;;;;;;;1.30;1.20;;;;;;;17.84;36.29;100768.00;4736139;30;20036;-87
2022/11/21 10:00:18;;;;;;;1.50;1.40;;;;;;;17.83;36.23;100756.38;4734901;30;20035;-87
2022/11/21 10:02:44;;;;;;;1.77;1.25;;;;;;;17.77;36.54;100740.22;4735636;30;20040;-87
2022/11/21 10:05:13;;;;;;;1.33;1.23;;;;;;;17.86;36.31;100751.56;4734883;30;20461;-87
2022/11/21 10:07:38;;;;;;;1.52;1.35;;;;;;;17.86;36.23;100754.25;4735116;30;20032;-87
2022/11/21 10:10:32;;;;;;;1.70;1.60;;;;;;;17.86;36.18;100760.50;4734852;30;20059;-87
2022/11/21 10:13:20;;;;;;;3.80;1.40;;;;;;;17.82;36.26;100753.88;4749211;30;20046;-87
2022/11/21 10:16:02;;;;;;;1.58;1.20;;;;;;;17.85;36.24;100750.75;4749412;30;20133;-87
2022/11/21 10:19:03;;;;;;;1.58;1.48;;;;;;;17.80;36.26;100756.81;4749722;30;20024;-87
2022/11/21 10:21:55;;;;;;;1.40;1.30;;;;;;;17.82;36.21;100757.41;4740243;30;20486;-87
2022/11/21 10:24:39;;;;;;;1.50;1.25;;;;;;;17.82;36.18;100760.09;4739509;30;20484;-88
2022/11/21 10:27:17;;;;;;;1.30;1.20;;;;;;;17.81;36.15;100754.94;4738884;30;20480;-87
2022/11/21 10:29:52;;;;;;;1.63;1.27;;;;;;;17.78;36.30;100742.72;4752552;30;20108;-87
2022/11/21 10:32:26;;;;;;;1.50;1.40;;;;;;;17.83;36.28;100745.56;4752594;30;20043;-87
2022/11/21 10:34:54;;;;;;;1.48;1.38;;;;;;;17.84;36.21;100746.38;4737521;30;20052;-87
2022/11/21 10:37:36;;;;;;;1.67;1.50;;;;;;;17.84;36.31;100747.19;4737907;30;20036;-87
2022/11/21 10:40:15;;;;;;;1.50;1.40;;;;;;;17.82;36.05;100732.25;4738522;30;20120;-87
2022/11/21 10:45:51;;;;;;;2.35;1.40;;;;;;;17.83;36.16;100733.91;4752561;30;20055;-88
2022/11/21 10:48:16;;;;;;;1.67;1.55;;;;;;;17.79;36.30;100720.00;4752134;30;20024;-87
2022/11/21 10:51:05;;;;;;;1.73;1.30;;;;;;;17.82;36.36;100726.84;4737624;30;20056;-87
2022/11/21 10:56:18;;;;;;;1.42;1.33;;;;;;;17.78;36.24;100721.06;4739661;30;20047;-87
2022/11/21 10:58:45;;;;;;;1.83;1.40;;;;;;;17.82;36.20;100722.25;4737641;30;20036;-87
2022/11/21 11:01:37;;;;;;;1.80;1.38;;;;;;;17.82;36.29;100722.25;4737320;30;20040;-87
2022/11/21 11:04:09;;;;;;;1.35;1.20;;;;;;;17.83;36.21;100723.94;4735469;30;20048;-87
2022/11/21 11:06:35;;;;;;;1.80;1.40;;;;;;;17.80;36.02;100718.97;4752800;30;20499;-87
2022/11/21 11:09:31;;;;;;;1.60;1.40;;;;;;;17.80;36.12;100729.78;4738545;30;20040;-87
2022/11/21 11:12:22;;;;;;;2.30;1.67;;;;;;;17.80;36.11;100726.25;4736962;30;20049;-87
2022/11/21 11:14:52;;;;;;;1.30;1.20;;;;;;;17.80;36.13;100724.38;4737595;30;20159;-87
2022/11/21 11:17:28;;;;;;;1.55;1.30;;;;;;;17.80;35.84;100724.38;4737667;30;20036;-87
2022/11/21 11:20:32;;;;;;;1.50;1.40;;;;;;;17.79;35.92;100719.19;4737262;30;20036;-87
2022/11/21 11:22:58;;;;;;;2.13;1.58;;;;;;;17.77;35.98;100724.81;4738644;30;20123;-87
2022/11/21 11:25:23;;;;;;;1.40;1.30;;;;;;;17.77;35.98;100722.13;4751586;30;20136;-87
2022/11/21 11:27:49;;;;;;;1.70;1.40;;;;;;;17.79;36.09;100721.91;4737020;30;20031;-87
2022/11/21 11:30:16;;;;;;;1.60;1.50;;;;;;;17.79;35.95;100711.09;4735653;30;20028;-87
2022/11/21 11:32:41;;;;;;;1.90;1.48;;;;;;;17.79;36.04;100708.38;4736703;30;20489;-87
2022/11/21 11:35:28;;;;;;;1.60;1.42;;;;;;;17.79;36.15;100706.50;4751086;30;20058;-87
2022/11/21 11:38:03;;;;;;;1.70;1.50;;;;;;;17.77;36.08;100697.78;4751334;30;20078;-87
2022/11/21 11:40:29;;;;;;;1.40;1.30;;;;;;;17.79;36.07;100692.97;4737062;30;20503;-87
2022/11/21 11:49:02;;;;;;;1.58;1.48;;;;;;;17.77;35.86;100692.38;4751612;30;20466;-87
2022/11/21 11:51:35;;;;;;;2.22;1.45;;;;;;;17.78;36.13;100702.16;4737066;30;20040;-87
2022/11/21 11:54:14;;;;;;;2.17;1.60;;;;;;;17.79;35.86;100700.25;4751203;30;20033;-87